Time;durP1;ratioP1;P1;durP2;ratioP2;P2;SDS_P1;SDS_P2;PMS_P1;PMS_P2;Temp;Humidity;BMP_temperature;BMP_pressure;BME280_temperature;BME280_humidity;BME280_pressure;Samples;Min_cycle;Max_cycle;Signal;HPM_P1;HPM_P2
2022/12/05 00:00:54;;;;;;;;;46.25;36.50;;;;;5.89;66.30;101447.31;2404318;28;45318;-80
2022/12/05 00:02:04;;;;;;;;;43.50;34.00;;;;;5.88;66.72;101443.81;2404096;28;45440;-80
2022/12/05 00:03:15;;;;;;;;;51.75;36.00;;;;;5.85;66.35;101442.09;2402406;28;45224;-80
2022/12/05 00:04:25;;;;;;;;;40.25;35.50;;;;;5.84;66.52;101449.94;2389098;28;47261;-80
2022/12/05 00:05:39;;;;;;;;;44.50;35.50;;;;;5.83;66.50;101451.66;2391654;28;45433;-80
2022/12/05 00:06:49;;;;;;;;;37.50;29.25;;;;;5.81;66.50;101445.59;2386988;28;47220;-80
2022/12/05 00:08:00;;;;;;;;;45.25;36.00;;;;;5.81;66.59;101450.81;2393521;28;45274;-80
2022/12/05 00:09:12;;;;;;;;;41.25;34.00;;;;;5.82;66.74;101449.94;2387194;28;46070;-80
2022/12/05 00:10:22;;;;;;;;;41.00;34.00;;;;;5.80;66.54;101449.06;2394553;28;45306;-80
2022/12/05 00:11:36;;;;;;;;;42.00;34.00;;;;;5.79;66.56;101455.16;2403050;28;47241;-80
2022/12/05 00:12:46;;;;;;;;;39.50;34.00;;;;;5.79;66.84;101441.25;2402359;28;45268;-80
2022/12/05 00:13:58;;;;;;;;;37.75;34.00;;;;;5.80;66.48;101450.81;2403729;28;46279;-80
2022/12/05 00:15:11;;;;;;;;;40.75;31.75;;;;;5.81;66.94;101455.16;2404327;28;44649;-80
2022/12/05 00:16:23;;;;;;;;;38.00;33.00;;;;;5.81;66.71;101452.53;2403536;28;45568;-80
2022/12/05 00:17:34;;;;;;;;;41.75;34.00;;;;;5.81;66.59;101455.16;2393915;28;45406;-80
2022/12/05 00:18:44;;;;;;;;;39.50;32.50;;;;;5.81;66.64;101453.41;2388683;28;46532;-80
2022/12/05 00:19:55;;;;;;;;;32.75;31.50;;;;;5.79;66.68;101457.78;2397689;28;45227;-80
2022/12/05 00:21:06;;;;;;;;;40.25;33.00;;;;;5.82;66.77;101463.00;2402932;28;45541;-80
2022/12/05 00:22:17;;;;;;;;;39.00;32.75;;;;;5.80;66.56;101456.03;2404243;28;45182;-80
2022/12/05 00:23:27;;;;;;;;;34.25;27.00;;;;;5.80;66.45;101461.25;2401294;28;47381;-80
2022/12/05 00:24:38;;;;;;;;;41.00;34.00;;;;;5.78;66.58;101450.81;2403778;28;45311;-80
2022/12/05 00:25:48;;;;;;;;;35.50;28.00;;;;;5.78;66.45;101456.03;2389795;28;47426;-80
2022/12/05 00:26:59;;;;;;;;;42.25;33.75;;;;;5.78;66.40;101455.19;2384178;28;45256;-80
2022/12/05 00:28:09;;;;;;;;;44.25;35.50;;;;;5.79;66.19;101454.28;2398268;28;46537;-80
2022/12/05 00:29:19;;;;;;;;;42.50;30.75;;;;;5.78;66.51;101456.03;2404145;28;45239;-80
2022/12/05 00:30:30;;;;;;;;;37.75;33.50;;;;;5.77;66.64;101446.47;2392279;28;47419;-80
2022/12/05 00:31:40;;;;;;;;;42.25;33.00;;;;;5.78;66.33;101455.19;2387031;28;44737;-80
2022/12/05 00:32:50;;;;;;;;;43.00;32.50;;;;;5.76;66.64;101454.28;2387052;28;47387;-80
2022/12/05 00:34:02;;;;;;;;;43.25;35.50;;;;;5.77;66.92;101454.28;2396220;28;45306;-80
2022/12/05 00:35:12;;;;;;;;;47.50;31.25;;;;;5.77;66.61;101450.81;2404115;28;46531;-80
2022/12/05 00:36:26;;;;;;;;;43.00;33.75;;;;;5.78;66.74;101457.78;2403345;28;45341;-80
2022/12/05 00:37:37;;;;;;;;;40.00;29.25;;;;;5.78;66.67;101456.03;2403235;28;46425;-80
2022/12/05 00:38:48;;;;;;;;;41.75;31.50;;;;;5.78;66.48;101458.63;2393967;28;45199;-80
2022/12/05 00:39:58;;;;;;;;;37.50;34.00;;;;;5.77;66.26;101467.34;2395400;28;45484;-80
2022/12/05 00:41:12;;;;;;;;;44.00;32.75;;;;;5.76;66.36;101465.59;2402343;28;45381;-80
2022/12/05 00:42:23;;;;;;;;;41.25;28.25;;;;;5.75;66.34;101463.88;2403225;28;46616;-80
2022/12/05 00:43:33;;;;;;;;;39.25;33.50;;;;;5.76;66.41;101455.16;2401377;28;44884;-80
2022/12/05 00:44:44;;;;;;;;;39.75;29.25;;;;;5.79;66.27;101456.91;2403243;28;46441;-80
2022/12/05 00:45:54;;;;;;;;;39.25;31.50;;;;;5.78;66.78;101457.78;2400282;28;45301;-80
2022/12/05 00:47:04;;;;;;;;;41.25;33.00;;;;;5.76;66.60;101454.28;2396546;28;46084;-80
2022/12/05 00:48:14;;;;;;;;;38.50;25.50;;;;;5.74;67.06;101454.28;2392891;28;45358;-80
2022/12/05 00:49:25;;;;;;;;;40.75;34.50;;;;;5.74;66.67;101452.56;2386998;28;47377;-80
2022/12/05 00:50:36;;;;;;;;;45.75;33.00;;;;;5.74;66.69;101452.56;2395813;28;45342;-80
2022/12/05 00:51:47;;;;;;;;;40.75;34.00;;;;;5.77;66.74;101456.91;2403426;28;45231;-80
2022/12/05 00:52:57;;;;;;;;;27.75;27.50;;;;;5.78;66.94;101453.41;2404024;28;45219;-80
2022/12/05 00:54:10;;;;;;;;;40.00;33.50;;;;;5.78;66.93;101453.41;2393663;28;47954;-80
2022/12/05 00:55:21;;;;;;;;;42.00;33.00;;;;;5.81;66.39;101458.63;2384410;28;44792;-80
2022/12/05 00:56:32;;;;;;;;;44.75;30.00;;;;;5.85;66.27;101472.56;2396354;28;47215;-80
2022/12/05 00:57:42;;;;;;;;;38.25;33.50;;;;;5.82;66.34;101468.22;2402455;28;45589;-80
2022/12/05 00:58:55;;;;;;;;;41.00;33.75;;;;;5.83;66.32;101474.28;2393339;28;47071;-80
2022/12/05 01:00:06;;;;;;;;;40.00;30.25;;;;;5.81;65.89;101468.19;2387215;28;44681;-80
2022/12/05 01:01:20;;;;;;;;;42.75;34.00;;;;;5.79;66.36;101473.41;2386994;28;47291;-80
2022/12/05 01:02:30;;;;;;;;;37.25;28.00;;;;;5.77;66.38;101475.16;2394169;28;45445;-80
2022/12/05 01:03:42;;;;;;;;;42.00;33.00;;;;;5.76;65.97;101473.41;2400806;28;45377;-80
2022/12/05 01:04:52;;;;;;;;;44.00;33.50;;;;;5.73;66.91;101470.81;2403896;28;45383;-80
2022/12/05 01:06:04;;;;;;;;;41.50;37.00;;;;;5.74;67.00;101469.94;2391398;28;47039;-80
2022/12/05 01:07:15;;;;;;;;;35.25;31.00;;;;;5.72;66.42;101469.97;2387120;28;45306;-80
2022/12/05 01:08:26;;;;;;;;;38.75;33.00;;;;;5.72;66.72;101475.19;2386882;28;47455;-80
2022/12/05 01:09:36;;;;;;;;;37.75;29.00;;;;;5.72;66.87;101469.09;2396645;28;44759;-80
2022/12/05 01:10:56;;;;;;;;;38.50;32.75;;;;;5.73;66.38;101478.63;2392925;28;47162;-80
2022/12/05 01:12:07;;;;;;;;;32.25;26.25;;;;;5.73;66.11;101481.22;2385972;28;46100;-80
2022/12/05 01:13:17;;;;;;;;;42.50;34.75;;;;;5.71;66.67;101486.47;2377504;28;46880;-80
2022/12/05 01:14:27;;;;;;;;;37.00;32.75;;;;;5.71;66.70;101486.47;2384779;28;45076;-80
2022/12/05 01:15:38;;;;;;;;;42.75;33.50;;;;;5.72;66.69;101485.59;2396358;28;45379;-80
2022/12/05 01:16:50;;;;;;;;;42.25;35.75;;;;;5.74;66.97;101496.03;2403741;28;45266;-80
2022/12/05 01:18:00;;;;;;;;;41.75;36.00;;;;;5.76;66.42;101493.41;2402935;28;47616;-80
2022/12/05 01:19:20;;;;;;;;;37.00;30.25;;;;;5.78;65.92;101500.38;2402545;28;45465;-80
2022/12/05 01:20:30;;;;;;;;;43.50;32.50;;;;;5.79;66.67;101496.91;2403784;28;45563;-80
2022/12/05 01:21:41;;;;;;;;;37.50;26.50;;;;;5.79;66.16;101496.03;2403744;28;45361;-80
2022/12/05 01:22:52;;;;;;;;;42.25;34.00;;;;;5.80;66.44;101495.16;2401894;28;48027;-80
2022/12/05 01:24:02;;;;;;;;;33.25;30.00;;;;;5.79;66.11;101486.47;2393531;28;45182;-80
2022/12/05 01:25:13;;;;;;;;;36.50;27.25;;;;;5.81;66.00;101489.94;2395631;28;45618;-80
2022/12/05 01:26:23;;;;;;;;;41.50;33.75;;;;;5.82;66.08;101491.69;2393279;28;44733;-80
2022/12/05 01:27:34;;;;;;;;;43.75;34.50;;;;;5.85;66.63;101496.03;2388167;28;45368;-80
2022/12/05 01:28:45;;;;;;;;;40.50;30.50;;;;;5.89;66.80;101496.88;2397545;28;45375;-80
2022/12/05 01:29:56;;;;;;;;;39.75;34.50;;;;;5.91;66.51;101502.97;2392505;28;47406;-81
2022/12/05 01:31:17;;;;;;;;;46.25;36.00;;;;;5.94;66.60;101503.84;2396596;28;44695;-80
2022/12/05 01:32:27;;;;;;;;;44.00;34.25;;;;;5.97;66.97;101508.19;2401596;28;48294;-80
2022/12/05 01:33:38;;;;;;;;;41.25;35.50;;;;;5.99;66.87;101508.19;2393735;28;44732;-80
2022/12/05 01:34:48;;;;;;;;;43.00;34.00;;;;;6.03;67.33;101509.91;2396262;28;46364;-80
2022/12/05 01:35:58;;;;;;;;;37.25;28.25;;;;;6.06;67.06;101515.13;2402131;28;45326;-80
2022/12/05 01:37:09;;;;;;;;;39.50;30.50;;;;;6.08;67.16;101514.28;2393455;28;47242;-80
2022/12/05 01:38:19;;;;;;;;;41.00;30.75;;;;;6.11;67.63;101515.16;2396318;28;44647;-80
2022/12/05 01:39:29;;;;;;;;;37.25;31.25;;;;;6.13;67.03;101516.91;2397422;28;46847;-80
2022/12/05 01:40:40;;;;;;;;;39.50;32.75;;;;;6.16;67.29;101527.34;2401559;28;45349;-80
2022/12/05 01:41:51;;;;;;;;;38.75;30.50;;;;;6.18;67.46;101522.09;2395266;28;46155;-80
2022/12/05 01:43:02;;;;;;;;;38.25;31.50;;;;;6.22;67.19;101526.47;2385597;28;45299;-80
2022/12/05 01:44:12;;;;;;;;;43.50;34.25;;;;;6.22;66.71;101521.25;2377270;28;47179;-80
2022/12/05 01:45:33;;;;;;;;;37.75;33.00;;;;;6.22;66.07;101521.25;2393185;28;45467;-80
2022/12/05 01:46:47;;;;;;;;;39.00;34.75;;;;;6.23;66.30;101528.19;2403417;28;45657;-80
2022/12/05 01:48:01;;;;;;;;;44.25;34.00;;;;;6.23;66.10;101532.53;2394193;28;45178;-81
2022/12/05 01:49:24;;;;;;;;;40.00;29.25;;;;;6.22;67.00;101536.03;2392767;28;48029;-80
2022/12/05 01:50:36;;;;;;;;;42.00;30.75;;;;;6.23;66.63;101536.03;2398085;28;44616;-80
2022/12/05 01:51:50;;;;;;;;;33.50;24.75;;;;;6.25;66.54;101539.50;2402666;28;45603;-80
2022/12/05 01:53:02;;;;;;;;;34.00;28.50;;;;;6.27;66.83;101539.50;2396140;28;45373;-80
2022/12/05 01:54:15;;;;;;;;;35.50;31.75;;;;;6.30;67.00;101552.53;2393322;28;47235;-81
2022/12/05 01:55:25;;;;;;;;;34.25;29.75;;;;;6.30;66.93;101542.09;2384352;28;44858;-80
2022/12/05 01:56:38;;;;;;;;;42.75;32.00;;;;;6.33;66.64;101546.44;2386940;28;45271;-81
2022/12/05 01:57:49;;;;;;;;;44.75;32.75;;;;;6.34;67.06;101548.19;2397412;28;45510;-81
2022/12/05 01:59:01;;;;;;;;;42.00;33.25;;;;;6.35;66.86;101542.97;2397518;28;47916;-81
2022/12/05 02:00:16;;;;;;;;;36.25;32.00;;;;;6.37;66.66;101550.81;2403046;28;45398;-80
2022/12/05 02:01:27;;;;;;;;;41.75;34.00;;;;;6.38;66.44;101549.91;2389178;28;47103;-80
2022/12/05 02:02:39;;;;;;;;;42.00;33.00;;;;;6.40;66.05;101548.16;2393250;28;45404;-80
2022/12/05 02:03:54;;;;;;;;;35.75;30.25;;;;;6.38;66.29;101555.13;2391303;28;46964;-81
2022/12/05 02:05:10;;;;;;;;;39.50;34.75;;;;;6.34;65.85;101556.91;2396736;28;45374;-81
2022/12/05 02:06:22;;;;;;;;;38.75;32.75;;;;;6.29;65.75;101554.31;2401770;28;47346;-80
2022/12/05 02:07:36;;;;;;;;;36.75;32.50;;;;;6.26;66.08;101548.19;2402649;28;45283;-81
2022/12/05 02:08:48;;;;;;;;;37.50;33.25;;;;;6.23;65.99;101554.28;2402193;28;46471;-81
2022/12/05 02:09:58;;;;;;;;;41.00;30.75;;;;;6.22;65.69;101549.97;2392980;28;45244;-80
2022/12/05 02:11:09;;;;;;;;;38.00;33.00;;;;;6.21;66.34;101542.13;2393936;28;45417;-81
2022/12/05 02:12:20;;;;;;;;;37.00;33.00;;;;;6.19;66.04;101547.34;2391305;28;45292;-81
2022/12/05 02:13:40;;;;;;;;;41.75;33.25;;;;;6.21;66.29;101549.94;2386680;28;45435;-81
2022/12/05 02:15:23;;;;;;;;;36.50;30.25;;;;;6.20;66.07;101543.84;2391872;28;45263;-80
2022/12/05 02:16:46;;;;;;;;;40.75;31.00;;;;;6.17;65.83;101539.50;2390475;28;48709;-81
2022/12/05 02:18:18;;;;;;;;;39.25;27.00;;;;;6.14;66.19;101539.53;2387904;28;45377;-81
2022/12/05 02:19:47;;;;;;;;;40.25;31.75;;;;;6.13;66.29;101540.38;2389093;28;48519;-81
2022/12/05 02:21:12;;;;;;;;;39.75;32.00;;;;;6.10;65.82;101543.00;2385988;28;45562;-80
2022/12/05 02:22:51;;;;;;;;;36.25;27.25;;;;;6.06;65.64;101539.50;2397433;28;47553;-81
2022/12/05 02:24:14;;;;;;;;;43.25;33.75;;;;;6.03;65.83;101541.22;2346878;29;45305;-81
2022/12/05 02:25:45;;;;;;;;;45.75;34.25;;;;;6.02;66.06;101537.78;2371347;28;45555;-81
2022/12/05 02:27:07;;;;;;;;;33.50;29.75;;;;;6.00;66.04;101547.31;2402590;28;45638;-81
2022/12/05 02:28:29;;;;;;;;;32.75;28.75;;;;;5.99;65.99;101543.00;2403246;28;46737;-80
2022/12/05 02:29:50;;;;;;;;;38.00;31.25;;;;;5.97;65.73;101542.13;2402325;28;44541;-80
2022/12/05 02:31:13;;;;;;;;;41.50;29.75;;;;;5.95;65.81;101544.72;2392831;28;48007;-80
2022/12/05 02:32:24;;;;;;;;;40.25;31.50;;;;;5.94;65.54;101540.38;2397081;28;45361;-80
2022/12/05 02:33:44;;;;;;;;;38.25;31.75;;;;;5.92;66.41;101546.47;2403055;28;46429;-81
2022/12/05 02:35:16;;;;;;;;;40.50;34.00;;;;;5.92;66.12;101546.47;2398430;28;45457;-81
2022/12/05 02:36:44;;;;;;;;;34.50;27.75;;;;;5.89;66.31;101543.84;2392353;28;47420;-80
2022/12/05 02:38:11;;;;;;;;;35.75;29.75;;;;;5.86;66.11;101542.13;2388656;28;44624;-80
2022/12/05 02:39:35;;;;;;;;;31.25;27.50;;;;;5.84;65.95;101551.69;2382967;28;47031;-80
2022/12/05 02:41:00;;;;;;;;;41.25;33.00;;;;;5.83;66.31;101548.19;2383804;28;45208;-81
2022/12/05 02:42:35;;;;;;;;;33.50;30.25;;;;;5.82;66.25;101549.09;2396400;28;46116;-80
2022/12/05 02:43:46;;;;;;;;;42.75;34.00;;;;;5.82;66.20;101553.44;2392790;28;45207;-80
2022/12/05 02:45:06;;;;;;;;;52.50;36.25;;;;;5.80;66.55;101550.81;2386325;28;46963;-81
2022/12/05 02:46:21;;;;;;;;;40.75;32.25;;;;;5.81;66.62;101544.72;2387593;28;44658;-80
2022/12/05 02:47:38;;;;;;;;;37.00;29.50;;;;;5.82;66.40;101546.47;2396164;28;46381;-80
2022/12/05 02:48:54;;;;;;;;;34.75;30.75;;;;;5.84;66.08;101546.47;2392942;28;45419;-81
2022/12/05 02:50:09;;;;;;;;;34.50;30.50;;;;;5.84;66.56;101543.84;2396378;28;45512;-80
2022/12/05 02:51:23;;;;;;;;;38.00;30.75;;;;;5.85;66.34;101549.06;2403162;28;45216;-81
2022/12/05 02:52:35;;;;;;;;;36.00;31.25;;;;;5.83;66.33;101542.97;2398534;28;46293;-80
2022/12/05 02:53:48;;;;;;;;;47.00;32.00;;;;;5.82;65.93;101541.25;2398104;28;45310;-80
2022/12/05 02:54:59;;;;;;;;;44.75;34.25;;;;;5.80;65.96;101542.13;2390997;28;47377;-81
2022/12/05 02:56:10;;;;;;;;;36.25;32.25;;;;;5.77;66.00;101543.00;2393088;28;45259;-81
2022/12/05 02:57:23;;;;;;;;;43.25;35.25;;;;;5.74;65.80;101537.78;2390961;28;46836;-81
2022/12/05 02:58:40;;;;;;;;;38.00;33.75;;;;;5.71;66.52;101538.63;2386341;28;44699;-80
2022/12/05 02:59:50;;;;;;;;;44.00;33.75;;;;;5.71;66.48;101537.75;2396579;28;45327;-80
2022/12/05 03:01:01;;;;;;;;;37.75;33.00;;;;;5.73;66.46;101549.06;2392776;28;44748;-81
2022/12/05 03:02:27;;;;;;;;;39.75;34.25;;;;;5.72;66.29;101536.91;2394355;28;45338;-80
2022/12/05 03:03:37;;;;;;;;;43.50;34.00;;;;;5.69;66.02;101548.22;2387372;28;45286;-80
2022/12/05 03:04:48;;;;;;;;;49.25;35.25;;;;;5.65;65.92;101543.00;2380884;28;47453;-80
2022/12/05 03:06:05;;;;;;;;;42.00;35.00;;;;;5.59;66.13;101541.25;2395903;28;44682;-81
2022/12/05 03:07:18;;;;;;;;;36.50;31.00;;;;;5.55;66.23;101544.72;2392652;28;48467;-80
2022/12/05 03:08:36;;;;;;;;;45.50;34.00;;;;;5.52;66.98;101545.59;2390203;28;44733;-80
2022/12/05 03:09:56;;;;;;;;;44.00;36.25;;;;;5.49;66.76;101542.97;2383292;28;47198;-81
2022/12/05 03:11:07;;;;;;;;;44.75;36.25;;;;;5.48;66.75;101546.47;2392591;28;45557;-81
2022/12/05 03:12:24;;;;;;;;;43.00;33.50;;;;;5.48;66.82;101549.06;2397096;28;45484;-80
2022/12/05 03:13:54;;;;;;;;;44.25;34.00;;;;;5.46;67.00;101545.56;2403038;28;45222;-80
2022/12/05 03:15:15;;;;;;;;;37.50;32.50;;;;;5.44;66.98;101542.97;2402878;28;46296;-80
2022/12/05 03:16:35;;;;;;;;;39.25;33.50;;;;;5.46;66.62;101545.56;2402984;28;44660;-81
2022/12/05 03:18:05;;;;;;;;;50.00;35.75;;;;;5.43;66.71;101546.44;2392616;28;47335;-81
2022/12/05 03:19:43;;;;;;;;;38.00;30.50;;;;;5.45;67.19;101555.16;2398429;28;45361;-81
2022/12/05 03:21:06;;;;;;;;;37.75;33.00;;;;;5.49;67.16;101556.00;2401222;28;45353;-81
2022/12/05 03:22:40;;;;;;;;;48.00;37.75;;;;;5.50;67.04;101547.31;2401483;28;45789;-80
2022/12/05 03:23:57;;;;;;;;;51.25;37.00;;;;;5.51;66.83;101554.25;2392625;28;46127;-80
2022/12/05 03:25:08;;;;;;;;;46.50;33.25;;;;;5.51;66.83;101554.25;2384459;28;45530;-80
2022/12/05 03:26:46;;;;;;;;;38.75;35.00;;;;;5.51;66.78;101556.88;2395732;28;45717;-81
2022/12/05 03:28:38;;;;;;;;;48.50;34.25;;;;;5.48;66.83;101554.28;2392814;28;45290;-81
2022/12/05 03:30:01;;;;;;;;;36.00;31.25;;;;;5.47;67.09;101552.53;2380768;28;46415;-81
2022/12/05 03:31:16;;;;;;;;;47.50;34.50;;;;;5.46;67.34;101562.06;2391162;28;45290;-80
2022/12/05 03:32:58;;;;;;;;;42.50;33.75;;;;;5.45;66.99;101562.97;2395880;28;46318;-80
2022/12/05 03:34:15;;;;;;;;;48.00;37.00;;;;;5.43;66.61;101562.09;2402000;28;45227;-80
2022/12/05 03:35:34;;;;;;;;;46.75;35.00;;;;;5.42;66.79;101562.94;2402365;28;46805;-80
2022/12/05 03:36:49;;;;;;;;;39.75;30.75;;;;;5.42;66.95;101565.56;2386315;28;45434;-80
2022/12/05 03:38:14;;;;;;;;;52.50;38.00;;;;;5.41;66.64;101566.41;2380039;28;48102;-80
2022/12/05 03:39:32;;;;;;;;;53.50;38.00;;;;;5.39;66.76;101569.03;2397654;28;45268;-80
2022/12/05 03:40:53;;;;;;;;;48.00;37.00;;;;;5.39;66.99;101565.53;2401178;28;48198;-81
2022/12/05 03:42:19;;;;;;;;;45.00;36.75;;;;;5.39;66.54;101565.53;2397803;28;46749;-80
2022/12/05 03:44:20;;;;;;;;;50.50;36.50;;;;;5.41;66.85;101569.03;2399639;28;46857;-80
2022/12/05 03:45:38;;;;;;;;;51.25;39.75;;;;;5.39;66.90;101573.38;2373723;28;45262;-80
2022/12/05 03:46:55;;;;;;;;;50.75;38.75;;;;;5.39;66.84;101573.38;2363415;28;47997;-80
2022/12/05 03:48:37;;;;;;;;;48.25;34.50;;;;;5.38;66.92;101574.25;2390446;28;45561;-80
2022/12/05 03:49:58;;;;;;;;;48.50;37.00;;;;;5.37;67.17;101578.59;2379231;28;46556;-80
2022/12/05 03:51:12;;;;;;;;;54.50;40.50;;;;;5.40;67.07;101586.44;2391666;28;45250;-80
2022/12/05 03:52:36;;;;;;;;;44.50;38.00;;;;;5.44;67.22;101589.03;2385505;28;48055;-80
2022/12/05 03:54:02;;;;;;;;;54.00;40.75;;;;;5.49;67.43;101595.13;2396593;28;45175;-80
2022/12/05 03:55:13;;;;;;;;;42.00;28.00;;;;;5.51;67.33;101590.78;2394782;28;46942;-80
2022/12/05 03:56:30;;;;;;;;;55.50;40.00;;;;;5.55;67.14;101581.22;2383256;28;45196;-81
2022/12/05 03:58:14;;;;;;;;;51.25;39.00;;;;;5.57;66.80;101590.81;2377168;28;47224;-80
2022/12/05 03:59:24;;;;;;;;;49.75;40.00;;;;;5.58;67.09;101586.47;2380772;28;45291;-80
2022/12/05 04:00:40;;;;;;;;;40.00;36.25;;;;;5.59;66.75;101588.19;2386972;28;46653;-81
2022/12/05 04:01:54;;;;;;;;;48.25;39.75;;;;;5.60;67.06;101589.94;2385601;28;45285;-81
2022/12/05 04:03:16;;;;;;;;;44.50;36.25;;;;;5.61;66.87;101595.16;2392753;28;46349;-80
2022/12/05 04:04:50;;;;;;;;;53.25;39.25;;;;;5.61;66.95;101591.66;2393376;28;45223;-81
2022/12/05 04:06:03;;;;;;;;;43.25;35.50;;;;;5.61;67.04;101592.53;2390467;28;48299;-80
2022/12/05 04:07:16;;;;;;;;;49.50;36.25;;;;;5.62;66.10;101602.13;2386092;28;45320;-80
2022/12/05 04:08:32;;;;;;;;;55.25;39.50;;;;;5.63;66.80;101603.84;2395706;28;45408;-80
2022/12/05 04:09:49;;;;;;;;;49.00;40.00;;;;;5.65;66.51;101602.97;2401819;28;45266;-80
2022/12/05 04:11:07;;;;;;;;;54.75;41.50;;;;;5.64;66.70;101596.88;2397671;28;48198;-80
2022/12/05 04:12:23;;;;;;;;;57.25;42.25;;;;;5.65;66.91;101602.97;2395665;28;45652;-80
2022/12/05 04:13:47;;;;;;;;;52.50;42.00;;;;;5.67;66.66;101603.84;2402237;28;45349;-80
2022/12/05 04:15:09;;;;;;;;;57.50;41.25;;;;;5.68;66.56;101600.38;2402724;28;45229;-80
2022/12/05 04:18:11;;;;;;;;;53.75;41.25;;;;;5.71;66.72;101593.41;2393217;28;44673;-81
2022/12/05 04:21:37;;;;;;;;;44.50;34.50;;;;;5.71;66.64;101597.75;2401899;28;44859;-80
2022/12/05 04:22:48;;;;;;;;;52.75;39.50;;;;;5.70;66.52;101599.53;2396131;28;48539;-81
2022/12/05 04:25:41;;;;;;;;;51.00;36.50;;;;;5.67;65.75;101601.25;2395080;28;45275;-80
2022/12/05 04:27:06;;;;;;;;;50.25;37.75;;;;;5.62;66.08;101599.50;2401838;28;45318;-80
2022/12/05 04:28:48;;;;;;;;;51.50;40.00;;;;;5.59;66.48;101606.44;2401438;28;46346;-80
2022/12/05 04:30:10;;;;;;;;;52.00;38.00;;;;;5.57;66.17;101609.06;2392278;28;45366;-80
2022/12/05 04:31:25;;;;;;;;;43.75;37.00;;;;;5.54;66.49;101609.03;2396590;28;45727;-80
2022/12/05 04:32:46;;;;;;;;;48.00;40.00;;;;;5.54;66.37;101608.16;2401405;28;45283;-80
2022/12/05 04:34:05;;;;;;;;;47.25;40.25;;;;;5.53;66.53;101606.44;2403737;28;45277;-81
2022/12/05 04:35:24;;;;;;;;;45.00;36.25;;;;;5.55;66.53;101607.31;2393206;28;45295;-80
2022/12/05 04:36:42;;;;;;;;;43.50;36.00;;;;;5.53;66.58;101612.53;2396992;28;47966;-80
2022/12/05 04:37:58;;;;;;;;;47.25;38.25;;;;;5.54;66.26;101614.25;2403884;28;45271;-80
2022/12/05 04:39:40;;;;;;;;;49.50;38.75;;;;;5.54;66.53;101618.59;2403336;28;47236;-81
2022/12/05 04:40:59;;;;;;;;;48.25;37.25;;;;;5.53;65.94;101614.25;2393363;28;44761;-81
2022/12/05 04:42:15;;;;;;;;;53.50;38.75;;;;;5.53;66.52;101614.25;2397303;28;45535;-80
2022/12/05 04:43:29;;;;;;;;;52.75;38.50;;;;;5.52;66.61;101608.16;2393601;28;45215;-80
2022/12/05 04:44:48;;;;;;;;;47.25;37.00;;;;;5.53;66.47;101609.94;2397129;28;45413;-81
2022/12/05 04:46:03;;;;;;;;;49.00;40.50;;;;;5.54;66.76;101614.25;2404179;28;44678;-80
2022/12/05 04:47:18;;;;;;;;;49.50;37.50;;;;;5.54;65.94;101610.78;2402856;28;45391;-80
2022/12/05 04:48:29;;;;;;;;;46.00;38.50;;;;;5.54;66.21;101616.88;2393544;28;45269;-81
2022/12/05 04:49:42;;;;;;;;;53.00;39.75;;;;;5.54;66.22;101616.88;2396686;28;46304;-80
2022/12/05 04:50:55;;;;;;;;;50.50;38.25;;;;;5.55;66.28;101618.63;2393954;28;45240;-80
2022/12/05 04:52:09;;;;;;;;;54.75;40.50;;;;;5.54;66.04;101614.25;2396088;28;47235;-80
2022/12/05 04:53:22;;;;;;;;;52.25;39.25;;;;;5.54;66.47;101616.88;2404140;28;45235;-81
2022/12/05 04:55:00;;;;;;;;;55.00;39.75;;;;;5.56;66.65;101617.72;2398676;28;45556;-80
2022/12/05 04:56:14;;;;;;;;;51.50;39.75;;;;;5.58;66.90;101623.81;2395426;28;45189;-80
2022/12/05 04:57:32;;;;;;;;;54.25;40.25;;;;;5.57;66.75;101624.69;2400846;28;46996;-80
2022/12/05 04:58:42;;;;;;;;;50.50;40.25;;;;;5.57;66.87;101619.50;2398089;28;45544;-80
2022/12/05 04:59:53;;;;;;;;;53.00;40.75;;;;;5.56;66.78;101625.56;2388889;28;46379;-81
2022/12/05 05:01:19;;;;;;;;;53.75;37.25;;;;;5.58;66.37;101626.44;2396622;28;45249;-80
2022/12/05 05:02:43;;;;;;;;;52.50;39.50;;;;;5.56;66.15;101628.16;2393562;28;48198;-80
2022/12/05 05:04:05;;;;;;;;;56.25;39.25;;;;;5.55;66.27;101636.88;2398868;28;45335;-81
2022/12/05 05:05:19;;;;;;;;;48.75;38.75;;;;;5.53;66.41;101625.56;2393557;28;46199;-81
2022/12/05 05:06:29;;;;;;;;;56.00;41.00;;;;;5.50;66.37;101626.44;2386472;28;45521;-80
2022/12/05 05:07:50;;;;;;;;;46.50;37.00;;;;;5.49;66.57;101629.03;2383168;28;46869;-80
2022/12/05 05:09:00;;;;;;;;;47.25;37.50;;;;;5.48;66.53;101629.91;2384955;28;44850;-80
2022/12/05 05:10:15;;;;;;;;;55.50;41.50;;;;;5.48;66.98;101627.28;2386444;28;46915;-80
2022/12/05 05:11:28;;;;;;;;;52.75;38.25;;;;;5.48;66.79;101624.69;2395477;28;44678;-80
2022/12/05 05:12:38;;;;;;;;;54.00;40.00;;;;;5.48;66.37;101629.91;2401274;28;45527;-80
2022/12/05 05:13:50;;;;;;;;;49.00;39.75;;;;;5.50;66.77;101630.78;2392384;28;45279;-80
2022/12/05 05:15:00;;;;;;;;;52.75;40.00;;;;;5.52;66.72;101629.03;2396415;28;45741;-80
2022/12/05 05:16:20;;;;;;;;;48.00;37.00;;;;;5.52;66.95;101626.44;2392382;28;45288;-80
2022/12/05 05:17:30;;;;;;;;;47.75;36.25;;;;;5.53;67.17;101630.78;2396489;28;45644;-80
2022/12/05 05:18:40;;;;;;;;;55.00;40.75;;;;;5.55;66.73;101633.38;2403891;28;45480;-80
2022/12/05 05:20:22;;;;;;;;;48.25;40.00;;;;;5.55;66.30;101634.28;2393289;28;46985;-80
2022/12/05 05:21:28;;;;;;;;;54.00;40.00;;;;;5.57;66.56;101637.75;2399092;28;45274;-80
2022/12/05 05:22:38;;;;;;;;;54.25;37.50;;;;;5.55;66.01;101631.66;2388296;28;47251;-80
2022/12/05 05:23:49;;;;;;;;;49.25;39.50;;;;;5.53;66.63;101636.00;2396471;28;45175;-80
2022/12/05 05:24:59;;;;;;;;;50.00;36.00;;;;;5.53;66.44;101633.41;2395066;28;46909;-80
2022/12/05 05:26:09;;;;;;;;;42.50;35.75;;;;;5.55;66.72;101636.88;2398035;28;45538;-80
2022/12/05 05:27:20;;;;;;;;;50.00;40.00;;;;;5.56;66.75;101630.78;2402022;28;46324;-80
2022/12/05 05:28:30;;;;;;;;;47.25;38.25;;;;;5.58;66.49;101634.25;2403455;28;45295;-80
2022/12/05 05:29:41;;;;;;;;;57.25;41.25;;;;;5.61;66.74;101636.00;2402966;28;46302;-80
2022/12/05 05:30:51;;;;;;;;;47.50;37.50;;;;;5.62;66.65;101641.25;2403730;28;45417;-80
2022/12/05 05:32:02;;;;;;;;;55.50;40.50;;;;;5.62;66.58;101632.53;2402559;28;46239;-80
2022/12/05 05:33:13;;;;;;;;;45.50;37.50;;;;;5.60;66.38;101632.53;2393444;28;45355;-80
2022/12/05 05:34:25;;;;;;;;;47.25;36.75;;;;;5.59;66.77;101640.34;2386771;28;46697;-81
2022/12/05 05:35:36;;;;;;;;;48.25;40.25;;;;;5.57;66.54;101636.88;2386924;28;45362;-80
2022/12/05 05:36:50;;;;;;;;;51.75;36.00;;;;;5.57;66.60;101642.97;2392527;28;45590;-80
2022/12/05 05:38:01;;;;;;;;;50.75;34.50;;;;;5.55;66.41;101642.09;2403709;28;45270;-81
2022/12/05 05:39:13;;;;;;;;;55.50;36.75;;;;;5.55;66.46;101642.09;2393222;28;47926;-80
2022/12/05 05:40:24;;;;;;;;;53.75;37.25;;;;;5.56;66.54;101635.13;2393115;28;45493;-80
2022/12/05 05:41:35;;;;;;;;;51.00;38.50;;;;;5.56;66.80;101637.72;2390372;28;46772;-80
2022/12/05 05:42:48;;;;;;;;;45.00;36.50;;;;;5.58;66.77;101636.84;2396344;28;45343;-80
2022/12/05 05:43:59;;;;;;;;;47.00;37.00;;;;;5.60;66.78;101642.97;2401533;28;46440;-80
2022/12/05 05:45:10;;;;;;;;;52.50;36.25;;;;;5.63;67.13;101642.97;2392578;28;45254;-80
2022/12/05 05:46:22;;;;;;;;;50.50;38.75;;;;;5.67;66.83;101642.97;2385938;28;47159;-81
2022/12/05 05:47:33;;;;;;;;;50.00;37.00;;;;;5.67;66.37;101640.38;2395752;28;45457;-80
2022/12/05 05:48:43;;;;;;;;;46.50;36.00;;;;;5.66;66.45;101649.94;2402300;28;46295;-80
2022/12/05 05:49:53;;;;;;;;;48.50;38.00;;;;;5.66;66.21;101651.66;2390118;28;45369;-80
2022/12/05 05:51:06;;;;;;;;;50.50;37.75;;;;;5.66;66.35;101656.88;2386200;28;47001;-80
2022/12/05 05:52:17;;;;;;;;;49.25;39.25;;;;;5.63;66.06;101653.41;2383757;28;45304;-81
2022/12/05 05:53:27;;;;;;;;;43.00;36.50;;;;;5.63;66.42;101661.22;2380192;28;46991;-81
2022/12/05 05:54:37;;;;;;;;;51.75;38.00;;;;;5.63;66.36;101658.63;2385931;28;45287;-80